createdAt,value
2024-04-30T00:01:06.532Z,60.94
2024-04-30T00:11:11.278Z,61.46
2024-04-30T00:21:18.564Z,62.24
2024-04-30T00:31:23.096Z,62.77
2024-04-30T00:41:30.542Z,63.56
2024-04-30T00:51:35.832Z,65.76
2024-04-30T01:01:43.093Z,68.01
2024-04-30T01:11:48.743Z,68.96
2024-04-30T01:21:56.413Z,69.78
2024-04-30T01:32:04.007Z,69.86
2024-04-30T01:42:09.040Z,70.47
2024-04-30T01:52:16.380Z,71.51
2024-04-30T02:02:21.035Z,72.35
2024-04-30T02:12:28.244Z,73.12
2024-04-30T02:22:32.882Z,73.67
2024-04-30T02:32:56.039Z,74.18
2024-04-30T02:43:00.708Z,74.62
2024-04-30T02:53:08.023Z,76.02
2024-04-30T03:03:12.579Z,77.04
2024-04-30T03:13:20.525Z,77.33
2024-04-30T03:23:25.120Z,76.80
2024-04-30T03:33:32.512Z,76.79
2024-04-30T03:43:41.051Z,76.98
2024-04-30T03:53:48.804Z,78.27
2024-04-30T04:03:53.362Z,80.07
2024-04-30T04:14:16.197Z,80.52
2024-04-30T04:24:20.728Z,80.76
2024-04-30T04:34:28.043Z,81.80
2024-04-30T04:44:32.686Z,84.31
2024-04-30T04:54:40.064Z,86.35
2024-04-30T05:04:44.697Z,86.78
2024-04-30T05:14:55.635Z,86.95
2024-04-30T05:25:00.515Z,85.88
2024-04-30T05:35:10.182Z,85.20
2024-04-30T05:45:14.537Z,87.08
2024-04-30T05:55:21.806Z,85.62
2024-04-30T06:05:26.410Z,85.67
2024-04-30T06:15:33.887Z,84.87
2024-04-30T06:25:38.602Z,84.66
2024-04-30T06:35:45.959Z,83.61
2024-04-30T06:45:51.188Z,83.39
2024-04-30T06:55:58.469Z,82.32
2024-04-30T07:06:03.131Z,80.92
2024-04-30T07:16:10.779Z,77.52
2024-04-30T07:26:18.373Z,74.72
2024-04-30T07:36:26.389Z,72.55
2024-04-30T07:46:30.968Z,70.26
2024-04-30T07:56:38.163Z,67.86
2024-04-30T08:06:42.789Z,66.40
2024-04-30T08:16:50.341Z,65.98
2024-04-30T08:26:54.984Z,63.75
2024-04-30T08:37:02.153Z,63.94
2024-04-30T08:47:07.989Z,62.20
2024-04-30T08:57:15.333Z,61.31
2024-04-30T09:07:19.992Z,60.89
2024-04-30T09:17:28.337Z,60.77
2024-04-30T09:27:33.564Z,58.73
2024-04-30T09:37:40.959Z,56.59
2024-04-30T09:47:46.044Z,55.33
2024-04-30T09:57:53.254Z,54.31
2024-04-30T10:07:58.909Z,52.23
2024-04-30T10:18:07.142Z,50.86
2024-04-30T10:28:16.405Z,51.50
2024-04-30T10:38:24.256Z,50.97
2024-04-30T10:48:29.936Z,50.78
2024-04-30T10:58:37.316Z,52.50
2024-04-30T11:08:41.998Z,51.72
2024-04-30T11:18:49.268Z,48.24
2024-04-30T11:29:08.843Z,40.75
2024-04-30T11:39:21.129Z,26.97
2024-04-30T11:49:25.749Z,25.75
2024-04-30T11:59:33.062Z,22.35
2024-04-30T12:09:37.630Z,19.05
2024-04-30T12:19:45.131Z,19.46
2024-04-30T12:29:50.192Z,19.26
2024-04-30T12:39:57.859Z,18.72
2024-04-30T12:50:02.422Z,18.51
2024-04-30T13:00:11.769Z,19.25
2024-04-30T13:10:17.306Z,20.15
2024-04-30T13:20:24.513Z,19.88
2024-04-30T13:30:29.173Z,19.82
2024-04-30T13:40:37.421Z,19.75
2024-04-30T13:50:41.994Z,21.92
2024-04-30T14:00:49.331Z,23.27
2024-04-30T14:10:54.069Z,24.65
2024-04-30T14:21:01.385Z,22.26
2024-04-30T14:31:06.040Z,23.07
2024-04-30T14:41:14.675Z,25.62
2024-04-30T14:51:19.235Z,23.38
2024-04-30T15:01:26.383Z,26.74
2024-04-30T15:11:31.018Z,27.66
2024-04-30T15:21:38.729Z,28.87
2024-04-30T15:31:43.544Z,29.09
2024-04-30T15:41:50.935Z,30.54
2024-04-30T15:51:55.502Z,31.24
2024-04-30T16:02:02.768Z,31.15
2024-04-30T16:12:07.900Z,31.92
2024-04-30T16:22:15.200Z,33.80
2024-04-30T16:32:19.984Z,35.06
2024-04-30T16:42:27.251Z,34.14
2024-04-30T16:52:31.791Z,35.13
2024-04-30T17:02:40.110Z,35.79
2024-04-30T17:12:44.730Z,37.18
2024-04-30T17:22:51.952Z,38.78
2024-04-30T17:32:56.580Z,40.31
2024-04-30T17:43:03.829Z,41.42
2024-04-30T17:53:08.500Z,42.30
2024-04-30T18:03:15.919Z,43.59
2024-04-30T18:13:20.493Z,45.65
2024-04-30T18:23:27.706Z,46.35
2024-04-30T18:33:32.365Z,48.57
2024-04-30T18:43:41.843Z,50.35
2024-04-30T18:53:46.515Z,50.80
2024-04-30T19:03:53.921Z,52.40
2024-04-30T19:13:58.595Z,54.81
2024-04-30T19:24:05.958Z,57.33
2024-04-30T19:34:11.694Z,57.96
2024-04-30T19:44:19.094Z,58.13
2024-04-30T19:54:23.633Z,60.35
2024-04-30T20:04:31.010Z,63.14
2024-04-30T20:14:35.966Z,64.95
2024-04-30T20:24:43.415Z,65.52
2024-04-30T20:34:48.311Z,66.50
2024-04-30T20:44:56.059Z,68.03
2024-04-30T20:55:00.959Z,69.10
2024-04-30T21:05:09.158Z,69.90
2024-04-30T21:15:14.093Z,69.28
2024-04-30T21:25:23.221Z,70.74
2024-04-30T21:35:28.156Z,71.89
2024-04-30T21:56:03.601Z,75.50
2024-04-30T22:16:51.340Z,78.86
2024-04-30T22:26:58.704Z,80.49
2024-04-30T22:37:04.163Z,81.37
2024-04-30T22:47:14.059Z,82.44
2024-04-30T22:57:18.895Z,81.85
2024-04-30T23:07:26.427Z,81.67
2024-04-30T23:17:31.111Z,83.96
2024-04-30T23:27:38.435Z,84.98
2024-04-30T23:37:43.004Z,85.93
2024-04-30T23:47:51.593Z,86.99
2024-04-30T23:57:56.425Z,86.44
